createdAt,value
2018-01-24T00:01:55.997Z,92.80
2018-01-24T00:04:23.475Z,92.80
2018-01-24T00:06:50.953Z,92.90
2018-01-24T00:09:18.422Z,92.90
2018-01-24T00:11:46.652Z,92.90
2018-01-24T00:14:14.151Z,92.80
2018-01-24T00:16:42.425Z,92.80
2018-01-24T00:19:09.925Z,92.80
2018-01-24T00:21:37.388Z,92.90
2018-01-24T00:24:04.874Z,92.90
2018-01-24T00:26:32.358Z,92.90
2018-01-24T00:28:59.841Z,92.90
2018-01-24T00:31:28.057Z,92.90
2018-01-24T00:33:55.539Z,92.90
2018-01-24T00:36:23.022Z,92.90
2018-01-24T00:38:51.286Z,92.90
2018-01-24T00:41:19.542Z,92.90
2018-01-24T00:43:47.130Z,92.90
2018-01-24T00:46:15.549Z,92.90
2018-01-24T00:48:43.020Z,92.90
2018-01-24T00:51:10.481Z,92.90
2018-01-24T00:53:37.970Z,92.90
2018-01-24T00:56:05.436Z,92.90
2018-01-24T00:58:32.939Z,92.90
2018-01-24T01:01:00.442Z,92.90
2018-01-24T01:03:27.905Z,92.90
2018-01-24T01:05:55.365Z,92.90
2018-01-24T01:08:22.869Z,92.90
2018-01-24T01:10:50.339Z,93.00
2018-01-24T01:13:17.810Z,93.00
2018-01-24T01:15:45.306Z,93.00
2018-01-24T01:18:13.572Z,93.00
2018-01-24T01:20:41.071Z,93.00
2018-01-24T01:23:08.570Z,93.00
2018-01-24T01:25:36.067Z,93.00
2018-01-24T01:28:04.306Z,93.00
2018-01-24T01:30:31.822Z,93.00
2018-01-24T01:32:59.293Z,93.00
2018-01-24T01:35:26.757Z,93.00
2018-01-24T01:37:54.257Z,93.00
2018-01-24T01:40:21.725Z,93.00
2018-01-24T01:42:49.366Z,93.00
2018-01-24T01:45:16.822Z,93.00
2018-01-24T01:47:44.323Z,93.00
2018-01-24T01:50:11.786Z,93.00
2018-01-24T01:52:39.249Z,93.10
2018-01-24T01:55:06.738Z,93.10
2018-01-24T01:57:34.225Z,93.10
2018-01-24T02:00:01.706Z,93.10
2018-01-24T02:02:29.946Z,93.00
2018-01-24T02:04:57.437Z,93.00
2018-01-24T02:07:25.661Z,93.10
2018-01-24T02:09:53.165Z,93.10
2018-01-24T02:12:20.651Z,93.00
2018-01-24T02:14:48.110Z,93.10
2018-01-24T02:17:15.595Z,93.10
2018-01-24T02:19:43.062Z,93.10
2018-01-24T02:22:10.594Z,93.10
2018-01-24T02:24:38.038Z,93.10
2018-01-24T02:27:05.511Z,93.10
2018-01-24T02:29:32.997Z,93.10
2018-01-24T02:32:00.498Z,93.10
2018-01-24T02:34:27.970Z,93.10
2018-01-24T02:36:56.209Z,93.10
2018-01-24T02:39:23.697Z,93.10
2018-01-24T02:41:51.914Z,93.10
2018-01-24T02:44:19.423Z,93.10
2018-01-24T02:46:47.650Z,93.00
2018-01-24T02:49:15.142Z,93.00
2018-01-24T02:51:42.633Z,93.10
2018-01-24T02:54:10.166Z,93.10
2018-01-24T02:56:38.429Z,93.10
2018-01-24T02:59:05.890Z,93.10
2018-01-24T03:01:33.389Z,93.10
2018-01-24T03:04:00.859Z,93.10
2018-01-24T03:06:28.366Z,93.10
2018-01-24T03:08:55.864Z,93.10
2018-01-24T03:11:24.098Z,93.10
2018-01-24T03:13:51.570Z,93.10
2018-01-24T03:16:19.044Z,93.10
2018-01-24T03:18:47.290Z,93.10
2018-01-24T03:21:14.773Z,93.10
2018-01-24T03:23:42.298Z,93.10
2018-01-24T03:26:09.778Z,93.10
2018-01-24T03:28:38.753Z,93.10
2018-01-24T03:31:06.245Z,93.10
2018-01-24T03:33:34.509Z,93.10
2018-01-24T03:36:02.010Z,93.10
2018-01-24T03:38:29.474Z,93.20
2018-01-24T03:40:56.970Z,93.20
2018-01-24T03:43:24.430Z,93.20
2018-01-24T03:45:51.940Z,93.10
2018-01-24T03:48:19.393Z,93.10
2018-01-24T03:50:46.894Z,93.10
2018-01-24T03:53:14.358Z,93.10
2018-01-24T03:55:41.814Z,93.10
2018-01-24T03:58:09.314Z,93.10
2018-01-24T04:00:37.544Z,93.20
2018-01-24T04:03:05.081Z,93.20
2018-01-24T04:05:32.545Z,93.20
2018-01-24T04:08:00.779Z,93.20
2018-01-24T04:10:29.037Z,93.20
2018-01-24T04:12:56.522Z,93.20
2018-01-24T04:15:24.797Z,93.20
2018-01-24T04:17:53.022Z,93.20
2018-01-24T04:20:20.529Z,93.20
2018-01-24T04:22:48.762Z,93.20
2018-01-24T04:25:16.239Z,93.20
2018-01-24T04:27:43.725Z,93.20
2018-01-24T04:30:11.958Z,93.20
2018-01-24T04:32:39.466Z,93.20
2018-01-24T04:35:06.929Z,93.20
2018-01-24T04:37:34.394Z,93.20
2018-01-24T04:40:01.875Z,93.20
2018-01-24T04:42:29.330Z,93.20
2018-01-24T04:44:56.825Z,93.20
2018-01-24T04:47:24.290Z,93.20
2018-01-24T04:49:51.785Z,93.20
2018-01-24T04:52:19.253Z,93.20
2018-01-24T04:54:46.747Z,93.20
2018-01-24T04:57:14.272Z,93.30
2018-01-24T04:59:41.749Z,93.30
2018-01-24T05:02:09.231Z,93.30
2018-01-24T05:04:36.734Z,93.30
2018-01-24T05:07:04.233Z,93.30
2018-01-24T05:09:31.712Z,93.30
2018-01-24T05:11:59.179Z,93.30
2018-01-24T05:14:26.682Z,93.30
2018-01-24T05:16:54.185Z,93.20
2018-01-24T05:19:21.662Z,93.20
2018-01-24T05:21:49.123Z,93.30
2018-01-24T05:24:17.367Z,93.30
2018-01-24T05:26:44.838Z,93.30
2018-01-24T05:29:12.333Z,93.30
2018-01-24T05:31:39.800Z,93.30
2018-01-24T05:34:07.296Z,93.30
2018-01-24T05:36:34.754Z,93.30
2018-01-24T05:39:02.254Z,93.30
2018-01-24T05:41:30.501Z,93.30
2018-01-24T05:43:57.981Z,93.30
2018-01-24T05:46:25.489Z,93.30
2018-01-24T05:48:52.958Z,93.30
2018-01-24T05:51:20.449Z,93.40
2018-01-24T05:53:47.922Z,93.40
2018-01-24T05:56:16.198Z,93.40
2018-01-24T05:58:44.425Z,93.40
2018-01-24T06:01:11.891Z,93.40
2018-01-24T06:03:39.382Z,93.40
2018-01-24T06:06:07.606Z,93.40
2018-01-24T06:08:35.089Z,93.40
2018-01-24T06:11:02.570Z,93.40
2018-01-24T06:13:30.090Z,93.40
2018-01-24T06:15:57.538Z,93.40
2018-01-24T06:18:25.033Z,93.40
2018-01-24T06:20:52.515Z,93.40
2018-01-24T06:23:20.766Z,93.40
2018-01-24T06:25:48.269Z,93.40
2018-01-24T06:28:15.722Z,93.40
2018-01-24T06:30:44.010Z,93.40
2018-01-24T06:33:11.473Z,93.40
2018-01-24T06:35:38.945Z,93.40
2018-01-24T06:38:06.440Z,93.40
2018-01-24T06:40:33.901Z,93.40
2018-01-24T06:43:01.397Z,93.30
2018-01-24T06:45:28.862Z,93.30
2018-01-24T06:47:56.394Z,93.30
2018-01-24T06:50:23.846Z,93.30
2018-01-24T06:52:53.022Z,93.30
2018-01-24T06:55:20.500Z,93.30
2018-01-24T06:57:47.969Z,93.40
2018-01-24T07:00:16.251Z,93.40
2018-01-24T07:02:44.485Z,93.40
2018-01-24T07:05:11.976Z,93.40
2018-01-24T07:07:40.231Z,93.40
2018-01-24T07:10:07.717Z,93.40
2018-01-24T07:12:47.997Z,93.40
2018-01-24T07:15:15.500Z,93.40
2018-01-24T07:17:42.954Z,93.40
2018-01-24T07:20:10.421Z,93.40
2018-01-24T07:22:37.963Z,93.40
2018-01-24T07:25:05.398Z,93.40
2018-01-24T07:27:32.931Z,93.50
2018-01-24T07:30:01.179Z,93.50
2018-01-24T07:32:28.671Z,93.50
2018-01-24T07:34:56.902Z,93.50
2018-01-24T07:37:24.394Z,93.50
2018-01-24T07:39:51.904Z,93.50
2018-01-24T07:42:19.369Z,93.50
2018-01-24T07:44:46.862Z,93.50
2018-01-24T07:47:14.345Z,93.40
2018-01-24T07:49:42.616Z,93.50
2018-01-24T07:52:10.886Z,93.50
2018-01-24T07:54:39.135Z,93.50
2018-01-24T07:57:06.622Z,93.50
2018-01-24T07:59:34.851Z,93.50
2018-01-24T08:02:02.338Z,93.50
2018-01-24T08:04:29.834Z,93.50
2018-01-24T08:06:57.346Z,93.50
2018-01-24T08:09:24.859Z,93.50
2018-01-24T08:11:52.352Z,93.50
2018-01-24T08:14:19.834Z,93.50
2018-01-24T08:16:47.320Z,93.50
2018-01-24T08:19:15.574Z,93.60
2018-01-24T08:21:43.062Z,93.50
2018-01-24T08:24:10.566Z,93.60
2018-01-24T08:26:38.029Z,93.60
2018-01-24T08:29:05.518Z,93.50
2018-01-24T08:31:33.757Z,93.50
2018-01-24T08:34:01.223Z,93.50
2018-01-24T08:36:29.485Z,93.50
2018-01-24T08:38:56.974Z,93.50
2018-01-24T08:41:24.510Z,93.50
2018-01-24T08:43:51.970Z,93.60
2018-01-24T08:46:19.461Z,93.70
2018-01-24T08:48:47.722Z,93.80
2018-01-24T08:51:15.181Z,93.80
2018-01-24T08:53:42.686Z,93.80
2018-01-24T08:56:10.150Z,93.80
2018-01-24T08:58:37.627Z,93.70
2018-01-24T09:01:05.117Z,93.80
2018-01-24T09:03:32.584Z,93.70
2018-01-24T09:06:00.850Z,93.70
2018-01-24T09:08:28.341Z,93.70
2018-01-24T09:10:56.605Z,93.70
2018-01-24T09:13:24.866Z,93.70
2018-01-24T09:15:52.311Z,93.70
2018-01-24T09:18:19.804Z,93.70
2018-01-24T09:20:48.099Z,93.60
2018-01-24T09:23:15.573Z,93.60
2018-01-24T09:25:43.073Z,93.70
2018-01-24T09:28:10.553Z,93.70
2018-01-24T09:30:38.806Z,93.60
2018-01-24T09:33:06.285Z,93.60
2018-01-24T09:35:34.558Z,93.50
2018-01-24T09:38:02.078Z,93.50
2018-01-24T09:40:29.545Z,93.60
2018-01-24T09:42:57.022Z,93.60
2018-01-24T09:45:24.519Z,93.60
2018-01-24T09:47:51.974Z,93.60
2018-01-24T09:50:19.470Z,93.60
2018-01-24T09:52:46.929Z,93.40
2018-01-24T09:55:14.427Z,93.30
2018-01-24T09:57:42.684Z,93.30
2018-01-24T10:00:10.187Z,93.20
2018-01-24T10:02:37.730Z,93.40
2018-01-24T10:05:05.991Z,93.60
2018-01-24T10:07:33.513Z,93.60
2018-01-24T10:10:00.973Z,93.50
2018-01-24T10:12:28.482Z,93.40
2018-01-24T10:14:56.702Z,92.90
2018-01-24T10:17:24.206Z,92.90
2018-01-24T10:19:52.430Z,93.50
2018-01-24T10:22:19.886Z,93.50
2018-01-24T10:24:47.418Z,93.50
2018-01-24T10:27:14.888Z,87.10
2018-01-24T10:29:42.510Z,87.20
2018-01-24T10:32:10.008Z,87.00
2018-01-24T10:34:37.466Z,86.90
2018-01-24T10:37:04.975Z,87.00
2018-01-24T10:39:32.435Z,87.00
2018-01-24T10:41:59.970Z,87.00
2018-01-24T10:44:27.450Z,87.10
2018-01-24T10:46:54.914Z,86.90
2018-01-24T10:49:22.425Z,86.80
2018-01-24T10:51:49.914Z,85.90
2018-01-24T10:54:17.454Z,86.30
2018-01-24T10:56:44.922Z,86.70
2018-01-24T10:59:12.449Z,86.60
2018-01-24T11:01:39.902Z,86.80
2018-01-24T11:04:07.429Z,86.80
2018-01-24T11:06:34.881Z,87.10
2018-01-24T11:09:02.339Z,86.70
2018-01-24T11:11:29.850Z,93.20
2018-01-24T11:13:57.354Z,93.30
2018-01-24T11:16:24.849Z,93.30
2018-01-24T11:18:52.450Z,93.40
2018-01-24T11:21:19.901Z,87.10
2018-01-24T11:23:47.410Z,93.30
2018-01-24T11:26:15.643Z,87.40
2018-01-24T11:28:43.148Z,87.40
2018-01-24T11:31:11.370Z,87.00
2018-01-24T11:33:38.847Z,87.00
2018-01-24T11:36:06.351Z,86.80
2018-01-24T11:38:34.565Z,86.50
2018-01-24T11:41:02.099Z,86.50
2018-01-24T11:43:29.580Z,87.20
2018-01-24T11:45:57.033Z,86.70
2018-01-24T11:48:24.546Z,87.20
2018-01-24T11:50:52.017Z,86.80
2018-01-24T11:53:20.268Z,86.30
2018-01-24T11:55:48.557Z,86.20
2018-01-24T11:58:16.830Z,86.10
2018-01-24T12:00:44.286Z,86.10
2018-01-24T12:03:11.806Z,86.20
2018-01-24T12:05:39.299Z,85.50
2018-01-24T12:08:06.757Z,85.50
2018-01-24T12:10:35.038Z,85.70
2018-01-24T12:13:02.509Z,85.70
2018-01-24T12:15:30.779Z,85.10
2018-01-24T12:17:59.062Z,85.00
2018-01-24T12:20:27.323Z,85.30
2018-01-24T12:22:54.841Z,85.40
2018-01-24T12:25:22.374Z,84.90
2018-01-24T12:27:49.897Z,84.80
2018-01-24T12:30:17.358Z,84.00
2018-01-24T12:32:44.905Z,83.80
2018-01-24T12:35:12.389Z,83.00
2018-01-24T12:37:40.620Z,84.00
2018-01-24T12:40:08.117Z,84.00
2018-01-24T12:42:36.358Z,83.70
2018-01-24T12:45:03.882Z,83.70
2018-01-24T12:47:31.359Z,83.70
2018-01-24T12:49:58.881Z,83.40
2018-01-24T12:52:27.121Z,83.00
2018-01-24T12:54:54.598Z,83.00
2018-01-24T12:57:22.074Z,82.20
2018-01-24T12:59:50.310Z,82.40
2018-01-24T13:02:17.830Z,82.40
2018-01-24T13:04:45.309Z,82.50
2018-01-24T13:07:12.849Z,81.70
2018-01-24T13:09:40.311Z,81.90
2018-01-24T13:12:07.765Z,80.80
2018-01-24T13:14:35.284Z,81.50
2018-01-24T13:17:02.762Z,81.30
2018-01-24T13:19:31.733Z,81.10
2018-01-24T13:21:59.230Z,81.10
2018-01-24T13:24:26.776Z,81.30
2018-01-24T13:26:54.254Z,80.00
2018-01-24T13:29:21.730Z,79.70
2018-01-24T13:31:49.219Z,79.40
2018-01-24T13:34:16.686Z,78.90
2018-01-24T13:36:44.181Z,78.10
2018-01-24T13:39:11.683Z,78.10
2018-01-24T13:41:39.245Z,77.80
2018-01-24T13:44:06.715Z,76.30
2018-01-24T13:46:34.199Z,76.50
2018-01-24T13:49:01.709Z,76.50
2018-01-24T13:51:29.190Z,77.10
2018-01-24T13:53:56.674Z,75.30
2018-01-24T13:56:24.137Z,76.70
2018-01-24T13:58:52.400Z,76.90
2018-01-24T14:01:19.857Z,76.90
2018-01-24T14:03:47.362Z,76.60
2018-01-24T14:06:14.853Z,79.20
2018-01-24T14:08:42.938Z,80.70
2018-01-24T14:11:10.434Z,81.40
2018-01-24T14:13:38.679Z,80.40
2018-01-24T14:16:06.157Z,80.40
2018-01-24T14:18:34.403Z,80.90
2018-01-24T14:21:01.939Z,80.90
2018-01-24T14:23:29.406Z,80.70
2018-01-24T14:25:56.906Z,80.60
2018-01-24T14:28:25.145Z,80.50
2018-01-24T14:30:52.641Z,80.50
2018-01-24T14:33:20.121Z,80.70
2018-01-24T14:35:47.594Z,80.50
2018-01-24T14:38:15.102Z,80.80
2018-01-24T14:40:42.628Z,80.60
2018-01-24T14:43:10.090Z,80.80
2018-01-24T14:45:37.588Z,80.90
2018-01-24T14:48:05.088Z,81.10
2018-01-24T14:50:32.586Z,81.70
2018-01-24T14:53:00.066Z,81.70
2018-01-24T14:55:28.350Z,82.20
2018-01-24T14:57:56.592Z,82.50
2018-01-24T15:00:24.130Z,82.50
2018-01-24T15:02:51.594Z,82.80
2018-01-24T15:05:19.122Z,82.60
2018-01-24T15:07:46.592Z,82.50
2018-01-24T15:10:14.078Z,82.50
2018-01-24T15:12:41.577Z,82.70
2018-01-24T15:15:09.794Z,83.20
2018-01-24T15:17:37.287Z,83.20
2018-01-24T15:20:04.762Z,83.60
2018-01-24T15:22:33.014Z,84.00
2018-01-24T15:25:00.510Z,84.00
2018-01-24T15:27:28.817Z,83.50
2018-01-24T15:29:56.279Z,83.50
2018-01-24T15:32:23.770Z,84.00
2018-01-24T15:34:51.281Z,84.40
2018-01-24T15:37:18.865Z,84.60
2018-01-24T15:39:46.354Z,84.90
2018-01-24T15:42:14.616Z,92.50
2018-01-24T15:44:42.125Z,92.50
2018-01-24T15:47:09.606Z,92.60
2018-01-24T15:49:37.109Z,92.60
2018-01-24T15:52:04.564Z,92.60
2018-01-24T15:54:32.066Z,92.70
2018-01-24T15:57:00.333Z,92.70
2018-01-24T15:59:28.574Z,92.70
2018-01-24T16:01:56.079Z,92.70
2018-01-24T16:04:23.587Z,92.80
2018-01-24T16:06:51.093Z,92.60
2018-01-24T16:09:18.595Z,92.70
2018-01-24T16:11:46.071Z,92.70
2018-01-24T16:14:13.903Z,92.80
2018-01-24T16:16:41.356Z,92.70
2018-01-24T16:19:08.889Z,92.70
2018-01-24T16:21:37.160Z,92.80
2018-01-24T16:24:05.434Z,93.00
2018-01-24T16:26:33.676Z,92.80
2018-01-24T16:29:01.177Z,92.80
2018-01-24T16:31:29.414Z,92.90
2018-01-24T16:33:56.921Z,92.90
2018-01-24T16:36:25.184Z,92.70
2018-01-24T16:38:53.408Z,92.80
2018-01-24T16:41:20.935Z,92.80
2018-01-24T16:43:48.437Z,92.80
2018-01-24T16:46:15.882Z,92.80
2018-01-24T16:48:43.359Z,92.90
2018-01-24T16:51:10.849Z,92.70
2018-01-24T16:53:38.331Z,92.70
2018-01-24T16:56:05.788Z,92.70
2018-01-24T16:58:33.308Z,92.90
2018-01-24T17:01:00.758Z,92.80
2018-01-24T17:03:28.292Z,92.90
2018-01-24T17:05:55.765Z,92.90
2018-01-24T17:08:23.226Z,92.90
2018-01-24T17:10:50.722Z,93.10
2018-01-24T17:13:18.960Z,93.10
2018-01-24T17:15:46.446Z,93.10
2018-01-24T17:18:14.670Z,93.00
2018-01-24T17:20:42.250Z,93.00
2018-01-24T17:23:09.731Z,92.90
2018-01-24T17:25:37.210Z,92.90
2018-01-24T17:28:05.453Z,92.80
2018-01-24T17:30:32.913Z,92.80
2018-01-24T17:33:00.441Z,92.90
2018-01-24T17:35:27.971Z,92.90
2018-01-24T17:37:56.234Z,93.00
2018-01-24T17:40:24.497Z,93.00
2018-01-24T17:42:51.993Z,93.00
2018-01-24T17:45:19.463Z,92.90
2018-01-24T17:47:47.010Z,92.90
2018-01-24T17:50:15.222Z,92.90
2018-01-24T17:52:42.715Z,92.90
2018-01-24T17:55:10.190Z,92.80
2018-01-24T17:57:38.466Z,93.00
2018-01-24T18:00:06.683Z,92.90
2018-01-24T18:02:34.207Z,92.90
2018-01-24T18:05:02.611Z,93.00
2018-01-24T18:07:30.100Z,92.90
2018-01-24T18:09:57.590Z,93.00
2018-01-24T18:12:25.842Z,92.90
2018-01-24T18:14:53.362Z,92.90
2018-01-24T18:17:20.882Z,92.80
2018-01-24T18:19:48.359Z,92.80
2018-01-24T18:22:16.634Z,92.90
2018-01-24T18:24:44.098Z,92.90
2018-01-24T18:27:11.602Z,92.80
2018-01-24T18:29:39.086Z,92.80
2018-01-24T18:32:06.589Z,92.80
2018-01-24T18:34:34.085Z,92.90
2018-01-24T18:37:01.612Z,92.90
2018-01-24T18:39:29.113Z,92.80
2018-01-24T18:41:56.572Z,92.70
2018-01-24T18:44:24.066Z,92.70
2018-01-24T18:46:52.293Z,92.70
2018-01-24T18:49:19.790Z,92.70
2018-01-24T18:51:48.018Z,92.70
2018-01-24T18:54:15.526Z,92.70
2018-01-24T18:56:43.828Z,92.50
2018-01-24T18:59:11.324Z,92.50
2018-01-24T19:01:38.814Z,92.40
2018-01-24T19:04:07.062Z,92.60
2018-01-24T19:06:34.541Z,92.60
2018-01-24T19:09:02.834Z,92.70
2018-01-24T19:11:32.158Z,92.70
2018-01-24T19:13:59.636Z,92.70
2018-01-24T19:16:27.143Z,92.70
2018-01-24T19:18:55.443Z,92.60
2018-01-24T19:21:23.667Z,92.60
2018-01-24T19:23:51.161Z,92.60
2018-01-24T19:26:19.393Z,92.60
2018-01-24T19:28:46.889Z,92.60
2018-01-24T19:31:15.135Z,92.70
2018-01-24T19:33:42.598Z,92.70
2018-01-24T19:36:10.103Z,92.80
2018-01-24T19:38:37.558Z,92.90
2018-01-24T19:41:05.058Z,92.80
2018-01-24T19:43:32.519Z,92.80
2018-01-24T19:46:00.030Z,92.90
2018-01-24T19:48:28.270Z,93.00
2018-01-24T19:50:55.784Z,93.00
2018-01-24T19:53:23.257Z,92.90
2018-01-24T19:55:50.766Z,92.80
2018-01-24T19:58:18.994Z,92.80
2018-01-24T20:00:46.458Z,92.80
2018-01-24T20:03:13.978Z,92.70
2018-01-24T20:05:41.460Z,92.70
2018-01-24T20:08:09.032Z,92.80
2018-01-24T20:10:36.510Z,92.70
2018-01-24T20:13:03.977Z,92.80
2018-01-24T20:15:31.509Z,92.70
2018-01-24T20:17:59.019Z,92.60
2018-01-24T20:20:27.332Z,92.80
2018-01-24T20:22:54.874Z,92.80
2018-01-24T20:25:22.392Z,92.80
2018-01-24T20:27:49.851Z,92.80
2018-01-24T20:30:17.375Z,92.80
2018-01-24T20:32:44.854Z,92.60
2018-01-24T20:35:12.340Z,92.70
2018-01-24T20:37:39.835Z,92.70
2018-01-24T20:40:07.408Z,92.70
2018-01-24T20:42:34.888Z,92.70
2018-01-24T20:45:02.382Z,92.70
2018-01-24T20:47:29.850Z,92.70
2018-01-24T20:49:58.120Z,92.80
2018-01-24T20:52:26.346Z,92.90
2018-01-24T20:54:53.875Z,92.90
2018-01-24T20:57:22.136Z,92.90
2018-01-24T20:59:50.389Z,92.90
2018-01-24T21:02:17.878Z,92.90
2018-01-24T21:04:46.093Z,93.00
2018-01-24T21:07:13.638Z,93.00
2018-01-24T21:09:41.120Z,93.00
2018-01-24T21:12:08.632Z,92.90
2018-01-24T21:14:36.897Z,92.90
2018-01-24T21:17:04.376Z,92.90
2018-01-24T21:19:31.844Z,92.90
2018-01-24T21:21:59.330Z,92.90
2018-01-24T21:24:26.821Z,92.80
2018-01-24T21:26:54.300Z,92.90
2018-01-24T21:29:34.608Z,92.90
2018-01-24T21:32:14.015Z,92.90
2018-01-24T21:34:53.613Z,92.80
2018-01-24T21:37:21.098Z,92.80
2018-01-24T21:39:49.360Z,92.80
2018-01-24T21:42:16.822Z,92.80
2018-01-24T21:44:45.087Z,92.90
2018-01-24T21:47:12.555Z,92.90
2018-01-24T21:49:40.778Z,92.80
2018-01-24T21:52:08.275Z,92.80
2018-01-24T21:54:35.754Z,92.80
2018-01-24T21:57:04.014Z,92.90
2018-01-24T21:59:31.469Z,92.90
2018-01-24T22:01:58.964Z,92.90
2018-01-24T22:04:27.179Z,92.80
2018-01-24T22:06:54.693Z,92.80
2018-01-24T22:09:22.930Z,92.80
2018-01-24T22:11:51.941Z,92.80
2018-01-24T22:14:19.430Z,92.80
2018-01-24T22:16:46.890Z,92.70
2018-01-24T22:19:14.378Z,92.70
2018-01-24T22:21:41.854Z,92.70
2018-01-24T22:24:09.330Z,92.70
2018-01-24T22:26:36.830Z,92.70
2018-01-24T22:29:04.334Z,92.70
2018-01-24T22:31:31.825Z,92.80
2018-01-24T22:34:00.062Z,92.60
2018-01-24T22:36:27.583Z,92.60
2018-01-24T22:38:55.067Z,92.50
2018-01-24T22:41:22.571Z,92.60
2018-01-24T22:43:50.038Z,92.70
2018-01-24T22:46:18.290Z,92.70
2018-01-24T22:48:45.774Z,92.70
2018-01-24T22:51:28.906Z,92.70
2018-01-24T22:53:56.435Z,92.70
2018-01-24T22:56:23.911Z,92.80
2018-01-24T22:58:52.141Z,92.90
2018-01-24T23:01:19.668Z,92.90
2018-01-24T23:03:47.117Z,92.90
2018-01-24T23:06:14.609Z,92.90
2018-01-24T23:08:42.065Z,92.80
2018-01-24T23:11:09.550Z,92.70
2018-01-24T23:13:37.013Z,92.70
2018-01-24T23:16:04.514Z,92.70
2018-01-24T23:18:32.028Z,92.60
2018-01-24T23:20:59.518Z,92.70
2018-01-24T23:23:27.746Z,92.70
2018-01-24T23:25:55.246Z,92.70
2018-01-24T23:28:23.518Z,92.60
2018-01-24T23:30:51.805Z,92.50
2018-01-24T23:33:20.074Z,92.40
2018-01-24T23:35:48.314Z,92.60
2018-01-24T23:38:15.809Z,92.60
2018-01-24T23:40:44.085Z,92.50
2018-01-24T23:43:11.546Z,92.50
2018-01-24T23:45:39.770Z,92.50
2018-01-24T23:48:07.280Z,92.50
2018-01-24T23:50:34.741Z,92.50
2018-01-24T23:53:02.977Z,92.50
2018-01-24T23:55:30.455Z,92.50
2018-01-24T23:57:59.466Z,92.40
